sensor_id;sensor_type;location;lat;lon;timestamp;pressure;altitude;pressure_sealevel;temperature;humidity
70571;BME280;58135;50.948;-1.458;2022-10-28T00:00:16;100924.48;;;18.91;19.09
70571;BME280;58135;50.948;-1.458;2022-10-28T00:02:40;100925.30;;;17.20;19.13
70571;BME280;58135;50.948;-1.458;2022-10-28T00:05:07;100923.28;;;16.28;19.04
70571;BME280;58135;50.948;-1.458;2022-10-28T00:07:31;100926.59;;;17.75;19.23
70571;BME280;58135;50.948;-1.458;2022-10-28T00:09:56;100931.81;;;17.73;19.12
70571;BME280;58135;50.948;-1.458;2022-10-28T00:12:22;100929.29;;;16.84;19.12
70571;BME280;58135;50.948;-1.458;2022-10-28T00:14:48;100926.61;;;18.69;19.09
70571;BME280;58135;50.948;-1.458;2022-10-28T00:17:13;100915.30;;;17.00;19.08
70571;BME280;58135;50.948;-1.458;2022-10-28T00:19:38;100915.65;;;17.70;19.13
70571;BME280;58135;50.948;-1.458;2022-10-28T00:22:04;100916.33;;;18.52;19.11
70571;BME280;58135;50.948;-1.458;2022-10-28T00:24:29;100914.67;;;18.47;19.15
70571;BME280;58135;50.948;-1.458;2022-10-28T00:26:55;100910.97;;;16.64;19.07
70571;BME280;58135;50.948;-1.458;2022-10-28T00:29:20;100908.88;;;18.39;19.08
70571;BME280;58135;50.948;-1.458;2022-10-28T00:31:46;100901.86;;;19.27;19.02
70571;BME280;58135;50.948;-1.458;2022-10-28T00:34:13;100902.17;;;19.29;19.09
70571;BME280;58135;50.948;-1.458;2022-10-28T00:36:39;100898.99;;;17.63;18.85
70571;BME280;58135;50.948;-1.458;2022-10-28T00:39:08;100899.17;;;17.58;18.88
70571;BME280;58135;50.948;-1.458;2022-10-28T00:41:29;100899.68;;;16.66;19.01
70571;BME280;58135;50.948;-1.458;2022-10-28T00:43:54;100894.58;;;17.53;18.90
70571;BME280;58135;50.948;-1.458;2022-10-28T00:46:24;100893.88;;;17.59;19.04
70571;BME280;58135;50.948;-1.458;2022-10-28T00:48:54;100893.96;;;18.52;18.99
70571;BME280;58135;50.948;-1.458;2022-10-28T00:51:09;100883.08;;;19.42;18.95
70571;BME280;58135;50.948;-1.458;2022-10-28T00:53:35;100877.23;;;18.49;18.68
70571;BME280;58135;50.948;-1.458;2022-10-28T00:56:01;100883.36;;;19.34;18.86
70571;BME280;58135;50.948;-1.458;2022-10-28T00:58:26;100879.41;;;17.58;18.91
70571;BME280;58135;50.948;-1.458;2022-10-28T01:00:50;100875.37;;;17.68;18.87
70571;BME280;58135;50.948;-1.458;2022-10-28T01:03:16;100875.43;;;17.61;18.97
70571;BME280;58135;50.948;-1.458;2022-10-28T01:05:43;100876.41;;;17.70;18.87
70571;BME280;58135;50.948;-1.458;2022-10-28T01:08:07;100875.55;;;18.51;18.77
70571;BME280;58135;50.948;-1.458;2022-10-28T01:10:46;100872.75;;;15.01;18.81
70571;BME280;58135;50.948;-1.458;2022-10-28T01:13:05;100872.52;;;16.88;18.72
70571;BME280;58135;50.948;-1.458;2022-10-28T01:15:31;100876.50;;;18.66;18.74
70571;BME280;58135;50.948;-1.458;2022-10-28T01:17:55;100870.34;;;17.72;18.71
70571;BME280;58135;50.948;-1.458;2022-10-28T01:20:34;100866.59;;;16.76;18.52
70571;BME280;58135;50.948;-1.458;2022-10-28T01:22:44;100861.72;;;18.39;18.44
70571;BME280;58135;50.948;-1.458;2022-10-28T01:25:28;100853.59;;;19.25;18.63
70571;BME280;58135;50.948;-1.458;2022-10-28T01:27:45;100850.83;;;18.20;18.44
70571;BME280;58135;50.948;-1.458;2022-10-28T01:30:03;100844.25;;;18.09;18.13
70571;BME280;58135;50.948;-1.458;2022-10-28T01:32:27;100840.72;;;17.18;18.37
70571;BME280;58135;50.948;-1.458;2022-10-28T01:34:50;100841.84;;;18.09;18.27
70571;BME280;58135;50.948;-1.458;2022-10-28T01:37:15;100837.54;;;16.27;18.46
70571;BME280;58135;50.948;-1.458;2022-10-28T01:39:42;100834.86;;;16.99;18.35
70571;BME280;58135;50.948;-1.458;2022-10-28T01:42:11;100823.06;;;19.47;18.51
70571;BME280;58135;50.948;-1.458;2022-10-28T01:44:33;100814.44;;;17.68;18.27
70571;BME280;58135;50.948;-1.458;2022-10-28T01:46:59;100805.13;;;17.55;18.58
70571;BME280;58135;50.948;-1.458;2022-10-28T01:49:22;100801.43;;;18.36;18.63
70571;BME280;58135;50.948;-1.458;2022-10-28T01:51:47;100793.12;;;16.39;18.56
70571;BME280;58135;50.948;-1.458;2022-10-28T01:54:12;100791.82;;;17.24;18.66
70571;BME280;58135;50.948;-1.458;2022-10-28T01:56:37;100789.60;;;18.94;18.79
70571;BME280;58135;50.948;-1.458;2022-10-28T01:59:02;100780.84;;;18.82;18.50
70571;BME280;58135;50.948;-1.458;2022-10-28T02:01:28;100778.46;;;16.68;18.87
70571;BME280;58135;50.948;-1.458;2022-10-28T02:03:52;100779.02;;;17.71;19.02
70571;BME280;58135;50.948;-1.458;2022-10-28T02:06:20;100777.85;;;18.82;18.92
70571;BME280;58135;50.948;-1.458;2022-10-28T02:08:51;100776.72;;;18.11;18.85
70571;BME280;58135;50.948;-1.458;2022-10-28T02:11:21;100771.55;;;18.14;18.55
70571;BME280;58135;50.948;-1.458;2022-10-28T02:16:06;100764.88;;;17.07;18.33
70571;BME280;58135;50.948;-1.458;2022-10-28T02:18:30;100764.73;;;15.22;18.43
70571;BME280;58135;50.948;-1.458;2022-10-28T02:20:52;100767.13;;;16.17;18.63
70571;BME280;58135;50.948;-1.458;2022-10-28T02:23:20;100770.49;;;15.35;18.59
70571;BME280;58135;50.948;-1.458;2022-10-28T02:25:45;100768.37;;;16.26;18.40
70571;BME280;58135;50.948;-1.458;2022-10-28T02:28:08;100767.50;;;16.10;18.53
70571;BME280;58135;50.948;-1.458;2022-10-28T02:30:38;100762.31;;;17.90;18.39
70571;BME280;58135;50.948;-1.458;2022-10-28T02:32:59;100753.78;;;17.03;18.42
70571;BME280;58135;50.948;-1.458;2022-10-28T02:35:28;100753.36;;;17.95;18.29
70571;BME280;58135;50.948;-1.458;2022-10-28T02:37:49;100747.12;;;17.90;18.42
70571;BME280;58135;50.948;-1.458;2022-10-28T02:40:18;100745.53;;;15.23;18.43
70571;BME280;58135;50.948;-1.458;2022-10-28T02:42:44;100745.79;;;16.90;18.34
70571;BME280;58135;50.948;-1.458;2022-10-28T02:45:08;100744.49;;;16.73;18.47
70571;BME280;58135;50.948;-1.458;2022-10-28T02:47:32;100736.54;;;17.27;18.73
70571;BME280;58135;50.948;-1.458;2022-10-28T02:49:57;100741.14;;;17.18;18.61
70571;BME280;58135;50.948;-1.458;2022-10-28T02:52:21;100738.31;;;17.17;18.53
70571;BME280;58135;50.948;-1.458;2022-10-28T02:54:49;100733.60;;;15.98;18.61
70571;BME280;58135;50.948;-1.458;2022-10-28T02:57:13;100730.54;;;17.10;18.85
70571;BME280;58135;50.948;-1.458;2022-10-28T02:59:36;100726.89;;;16.23;18.90
70571;BME280;58135;50.948;-1.458;2022-10-28T03:02:02;100728.07;;;16.28;18.59
70571;BME280;58135;50.948;-1.458;2022-10-28T03:04:27;100722.55;;;18.74;18.67
70571;BME280;58135;50.948;-1.458;2022-10-28T03:06:52;100713.15;;;16.01;18.90
70571;BME280;58135;50.948;-1.458;2022-10-28T03:09:18;100716.04;;;18.46;18.75
70571;BME280;58135;50.948;-1.458;2022-10-28T03:11:44;100710.46;;;16.84;19.01
70571;BME280;58135;50.948;-1.458;2022-10-28T03:14:09;100707.00;;;17.67;19.01
70571;BME280;58135;50.948;-1.458;2022-10-28T03:16:35;100707.20;;;16.76;18.84
70571;BME280;58135;50.948;-1.458;2022-10-28T03:19:00;100703.35;;;15.99;19.17
70571;BME280;58135;50.948;-1.458;2022-10-28T03:21:26;100699.93;;;17.11;19.06
70571;BME280;58135;50.948;-1.458;2022-10-28T03:23:51;100693.80;;;17.12;19.21
70571;BME280;58135;50.948;-1.458;2022-10-28T03:26:16;100689.60;;;16.13;19.20
70571;BME280;58135;50.948;-1.458;2022-10-28T03:28:42;100689.57;;;17.00;19.35
70571;BME280;58135;50.948;-1.458;2022-10-28T03:31:07;100691.12;;;17.01;19.34
70571;BME280;58135;50.948;-1.458;2022-10-28T03:33:33;100682.93;;;15.89;19.31
70571;BME280;58135;50.948;-1.458;2022-10-28T03:35:58;100681.31;;;17.86;19.50
70571;BME280;58135;50.948;-1.458;2022-10-28T03:38:24;100675.40;;;17.85;19.45
70571;BME280;58135;50.948;-1.458;2022-10-28T03:40:50;100665.64;;;16.71;19.42
70571;BME280;58135;50.948;-1.458;2022-10-28T03:43:16;100674.01;;;16.59;19.45
70571;BME280;58135;50.948;-1.458;2022-10-28T03:45:41;100676.74;;;16.52;19.82
70571;BME280;58135;50.948;-1.458;2022-10-28T03:48:06;100665.86;;;15.10;19.49
70571;BME280;58135;50.948;-1.458;2022-10-28T03:50:31;100659.72;;;16.07;19.74
70571;BME280;58135;50.948;-1.458;2022-10-28T03:52:57;100651.24;;;15.32;19.04
70571;BME280;58135;50.948;-1.458;2022-10-28T03:55:22;100653.77;;;15.26;19.63
70571;BME280;58135;50.948;-1.458;2022-10-28T03:57:47;100648.40;;;17.05;19.69
70571;BME280;58135;50.948;-1.458;2022-10-28T04:00:14;100642.88;;;16.10;19.44
70571;BME280;58135;50.948;-1.458;2022-10-28T04:02:38;100638.78;;;18.98;19.53
70571;BME280;58135;50.948;-1.458;2022-10-28T04:05:05;100644.33;;;16.54;19.66
70571;BME280;58135;50.948;-1.458;2022-10-28T04:07:29;100644.34;;;16.73;19.34
70571;BME280;58135;50.948;-1.458;2022-10-28T04:09:54;100646.98;;;16.99;19.67
70571;BME280;58135;50.948;-1.458;2022-10-28T04:12:19;100652.93;;;17.16;19.33
70571;BME280;58135;50.948;-1.458;2022-10-28T04:14:45;100654.35;;;17.18;19.51
70571;BME280;58135;50.948;-1.458;2022-10-28T04:17:10;100659.22;;;20.64;19.59
70571;BME280;58135;50.948;-1.458;2022-10-28T04:19:35;100658.88;;;18.93;19.51
70571;BME280;58135;50.948;-1.458;2022-10-28T04:22:01;100672.16;;;17.01;19.48
70571;BME280;58135;50.948;-1.458;2022-10-28T04:24:26;100672.12;;;18.71;19.64
70571;BME280;58135;50.948;-1.458;2022-10-28T04:26:51;100673.04;;;16.38;19.75
70571;BME280;58135;50.948;-1.458;2022-10-28T04:29:17;100678.91;;;18.38;19.78
70571;BME280;58135;50.948;-1.458;2022-10-28T04:31:42;100670.09;;;17.70;19.61
70571;BME280;58135;50.948;-1.458;2022-10-28T04:34:07;100658.34;;;18.50;19.06
70571;BME280;58135;50.948;-1.458;2022-10-28T04:36:33;100667.85;;;18.51;19.53
70571;BME280;58135;50.948;-1.458;2022-10-28T04:38:58;100670.70;;;16.73;19.60
70571;BME280;58135;50.948;-1.458;2022-10-28T04:41:23;100673.36;;;18.54;19.55
70571;BME280;58135;50.948;-1.458;2022-10-28T04:43:50;100673.53;;;17.67;19.61
70571;BME280;58135;50.948;-1.458;2022-10-28T04:46:14;100678.89;;;17.65;19.61
70571;BME280;58135;50.948;-1.458;2022-10-28T04:48:39;100676.67;;;17.67;19.47
70571;BME280;58135;50.948;-1.458;2022-10-28T04:51:05;100694.72;;;19.35;19.49
70571;BME280;58135;50.948;-1.458;2022-10-28T04:53:30;100700.16;;;18.06;19.55
70571;BME280;58135;50.948;-1.458;2022-10-28T04:55:56;100695.23;;;17.98;19.62
70571;BME280;58135;50.948;-1.458;2022-10-28T04:58:21;100692.84;;;18.06;19.48
70571;BME280;58135;50.948;-1.458;2022-10-28T05:00:47;100705.21;;;18.12;19.50
70571;BME280;58135;50.948;-1.458;2022-10-28T05:03:12;100721.67;;;17.23;19.59
70571;BME280;58135;50.948;-1.458;2022-10-28T05:05:38;100728.94;;;18.49;19.40
70571;BME280;58135;50.948;-1.458;2022-10-28T05:08:04;100734.72;;;18.71;19.18
70571;BME280;58135;50.948;-1.458;2022-10-28T05:10:29;100739.36;;;16.97;19.31
70571;BME280;58135;50.948;-1.458;2022-10-28T05:12:55;100736.08;;;17.90;19.17
70571;BME280;58135;50.948;-1.458;2022-10-28T05:15:20;100736.15;;;16.75;19.47
70571;BME280;58135;50.948;-1.458;2022-10-28T05:17:46;100740.86;;;16.94;19.51
70571;BME280;58135;50.948;-1.458;2022-10-28T05:20:12;100729.90;;;15.97;19.43
70571;BME280;58135;50.948;-1.458;2022-10-28T05:22:37;100707.48;;;16.84;19.37
70571;BME280;58135;50.948;-1.458;2022-10-28T05:25:03;100713.73;;;18.82;19.28
70571;BME280;58135;50.948;-1.458;2022-10-28T05:27:27;100710.26;;;17.97;19.30
70571;BME280;58135;50.948;-1.458;2022-10-28T05:29:52;100713.13;;;17.37;19.24
70571;BME280;58135;50.948;-1.458;2022-10-28T05:32:18;100707.63;;;16.65;19.16
70571;BME280;58135;50.948;-1.458;2022-10-28T05:34:44;100707.78;;;17.69;19.11
70571;BME280;58135;50.948;-1.458;2022-10-28T05:37:10;100714.42;;;17.71;19.01
70571;BME280;58135;50.948;-1.458;2022-10-28T05:39:35;100714.69;;;18.61;19.14
70571;BME280;58135;50.948;-1.458;2022-10-28T05:42:00;100725.84;;;18.53;19.15
70571;BME280;58135;50.948;-1.458;2022-10-28T05:44:25;100723.48;;;18.02;19.40
70571;BME280;58135;50.948;-1.458;2022-10-28T05:46:51;100707.40;;;16.46;19.64
70571;BME280;58135;50.948;-1.458;2022-10-28T05:49:17;100694.87;;;15.01;19.99
70571;BME280;58135;50.948;-1.458;2022-10-28T05:51:42;100706.86;;;16.14;20.23
70571;BME280;58135;50.948;-1.458;2022-10-28T05:54:08;100711.63;;;17.59;20.44
70571;BME280;58135;50.948;-1.458;2022-10-28T05:56:33;100714.38;;;17.10;20.48
70571;BME280;58135;50.948;-1.458;2022-10-28T05:58:59;100722.94;;;15.84;20.83
70571;BME280;58135;50.948;-1.458;2022-10-28T06:01:24;100732.08;;;16.33;21.03
70571;BME280;58135;50.948;-1.458;2022-10-28T06:03:49;100726.81;;;15.89;21.39
70571;BME280;58135;50.948;-1.458;2022-10-28T06:06:15;100729.27;;;14.54;21.55
70571;BME280;58135;50.948;-1.458;2022-10-28T06:08:40;100731.77;;;17.11;21.72
70571;BME280;58135;50.948;-1.458;2022-10-28T06:11:06;100730.12;;;15.43;21.74
70571;BME280;58135;50.948;-1.458;2022-10-28T06:13:31;100741.12;;;15.66;21.77
70571;BME280;58135;50.948;-1.458;2022-10-28T06:15:57;100739.41;;;14.16;21.69
70571;BME280;58135;50.948;-1.458;2022-10-28T06:18:22;100738.64;;;15.43;21.58
70571;BME280;58135;50.948;-1.458;2022-10-28T06:20:51;100730.36;;;15.41;21.48
70571;BME280;58135;50.948;-1.458;2022-10-28T06:23:13;100731.36;;;15.47;21.64
70571;BME280;58135;50.948;-1.458;2022-10-28T06:25:38;100732.49;;;16.53;21.55
70571;BME280;58135;50.948;-1.458;2022-10-28T06:28:03;100732.45;;;15.71;21.55
70571;BME280;58135;50.948;-1.458;2022-10-28T06:30:28;100746.64;;;16.18;21.19
70571;BME280;58135;50.948;-1.458;2022-10-28T06:32:55;100739.84;;;16.43;21.15
70571;BME280;58135;50.948;-1.458;2022-10-28T06:35:19;100746.77;;;17.08;21.23
70571;BME280;58135;50.948;-1.458;2022-10-28T06:37:44;100742.02;;;16.29;21.09
70571;BME280;58135;50.948;-1.458;2022-10-28T06:40:10;100741.63;;;15.61;21.14
70571;BME280;58135;50.948;-1.458;2022-10-28T06:42:35;100744.90;;;14.91;21.10
70571;BME280;58135;50.948;-1.458;2022-10-28T06:45:01;100748.91;;;17.79;21.06
70571;BME280;58135;50.948;-1.458;2022-10-28T06:47:26;100756.66;;;15.27;21.01
70571;BME280;58135;50.948;-1.458;2022-10-28T06:49:52;100765.35;;;17.90;20.98
70571;BME280;58135;50.948;-1.458;2022-10-28T06:52:18;100763.39;;;17.09;20.91
70571;BME280;58135;50.948;-1.458;2022-10-28T06:54:43;100780.24;;;16.21;21.03
70571;BME280;58135;50.948;-1.458;2022-10-28T06:57:09;100792.67;;;17.94;21.01
70571;BME280;58135;50.948;-1.458;2022-10-28T06:59:34;100807.65;;;16.97;20.62
70571;BME280;58135;50.948;-1.458;2022-10-28T07:02:00;100810.33;;;15.94;20.89
70571;BME280;58135;50.948;-1.458;2022-10-28T07:04:25;100804.60;;;17.12;20.94
70571;BME280;58135;50.948;-1.458;2022-10-28T07:06:53;100807.27;;;17.16;20.31
70571;BME280;58135;50.948;-1.458;2022-10-28T07:09:16;100810.96;;;18.24;20.55
70571;BME280;58135;50.948;-1.458;2022-10-28T07:11:41;100814.08;;;16.67;20.38
70571;BME280;58135;50.948;-1.458;2022-10-28T07:14:06;100827.33;;;16.02;20.28
70571;BME280;58135;50.948;-1.458;2022-10-28T07:16:31;100833.23;;;18.13;19.98
70571;BME280;58135;50.948;-1.458;2022-10-28T07:18:56;100841.78;;;17.53;19.86
70571;BME280;58135;50.948;-1.458;2022-10-28T07:21:21;100850.64;;;16.93;19.71
70571;BME280;58135;50.948;-1.458;2022-10-28T07:23:47;100857.92;;;18.02;19.73
70571;BME280;58135;50.948;-1.458;2022-10-28T07:26:12;100847.56;;;17.10;19.73
70571;BME280;58135;50.948;-1.458;2022-10-28T07:28:38;100854.30;;;18.27;19.68
70571;BME280;58135;50.948;-1.458;2022-10-28T07:31:03;100865.99;;;16.56;19.54
70571;BME280;58135;50.948;-1.458;2022-10-28T07:33:29;100872.76;;;17.45;19.45
70571;BME280;58135;50.948;-1.458;2022-10-28T07:35:54;100879.45;;;18.35;19.36
70571;BME280;58135;50.948;-1.458;2022-10-28T07:38:20;100882.80;;;16.73;19.30
70571;BME280;58135;50.948;-1.458;2022-10-28T07:40:45;100892.05;;;20.22;19.26
70571;BME280;58135;50.948;-1.458;2022-10-28T07:43:10;100902.54;;;18.34;19.25
70571;BME280;58135;50.948;-1.458;2022-10-28T07:45:36;100908.85;;;17.70;19.17
70571;BME280;58135;50.948;-1.458;2022-10-28T07:48:02;100917.50;;;19.27;18.95
70571;BME280;58135;50.948;-1.458;2022-10-28T07:50:26;100931.39;;;18.27;19.00
70571;BME280;58135;50.948;-1.458;2022-10-28T07:52:52;100938.17;;;16.45;18.99
70571;BME280;58135;50.948;-1.458;2022-10-28T07:55:17;100945.41;;;16.13;18.96
70571;BME280;58135;50.948;-1.458;2022-10-28T07:57:43;100952.38;;;17.73;19.02
70571;BME280;58135;50.948;-1.458;2022-10-28T08:00:09;100954.86;;;18.81;18.80
70571;BME280;58135;50.948;-1.458;2022-10-28T08:02:34;100956.14;;;15.94;18.88
70571;BME280;58135;50.948;-1.458;2022-10-28T08:04:59;100962.80;;;17.76;18.79
70571;BME280;58135;50.948;-1.458;2022-10-28T08:07:25;100966.38;;;16.04;18.79
70571;BME280;58135;50.948;-1.458;2022-10-28T08:09:51;100969.12;;;16.05;18.80
70571;BME280;58135;50.948;-1.458;2022-10-28T08:12:16;100968.57;;;17.11;18.71
70571;BME280;58135;50.948;-1.458;2022-10-28T08:14:41;100974.38;;;17.91;18.62
70571;BME280;58135;50.948;-1.458;2022-10-28T08:17:07;100978.39;;;16.84;18.63
70571;BME280;58135;50.948;-1.458;2022-10-28T08:19:32;100987.46;;;18.43;18.53
70571;BME280;58135;50.948;-1.458;2022-10-28T08:21:58;100988.18;;;17.35;18.56
70571;BME280;58135;50.948;-1.458;2022-10-28T08:24:23;100987.53;;;18.10;18.68
70571;BME280;58135;50.948;-1.458;2022-10-28T08:26:48;100994.39;;;17.28;18.69
70571;BME280;58135;50.948;-1.458;2022-10-28T08:29:14;100998.23;;;18.42;18.66
70571;BME280;58135;50.948;-1.458;2022-10-28T08:31:39;101003.60;;;18.58;18.60
70571;BME280;58135;50.948;-1.458;2022-10-28T08:34:05;101009.41;;;18.65;18.69
70571;BME280;58135;50.948;-1.458;2022-10-28T08:36:30;101011.31;;;16.38;18.61
70571;BME280;58135;50.948;-1.458;2022-10-28T08:38:55;101014.04;;;18.37;18.54
70571;BME280;58135;50.948;-1.458;2022-10-28T08:41:29;101016.91;;;19.36;18.44
70571;BME280;58135;50.948;-1.458;2022-10-28T08:43:55;101016.31;;;16.67;18.41
70571;BME280;58135;50.948;-1.458;2022-10-28T08:46:18;101017.99;;;17.58;18.41
70571;BME280;58135;50.948;-1.458;2022-10-28T08:48:38;101021.84;;;17.62;18.34
70571;BME280;58135;50.948;-1.458;2022-10-28T08:51:08;101022.74;;;16.78;18.40
70571;BME280;58135;50.948;-1.458;2022-10-28T08:53:30;101029.27;;;16.88;18.41
70571;BME280;58135;50.948;-1.458;2022-10-28T08:55:55;101039.66;;;17.88;18.38
70571;BME280;58135;50.948;-1.458;2022-10-28T08:58:21;101040.07;;;19.66;18.31
70571;BME280;58135;50.948;-1.458;2022-10-28T09:00:48;101041.67;;;17.07;18.36
70571;BME280;58135;50.948;-1.458;2022-10-28T09:03:16;101039.35;;;17.23;18.32
70571;BME280;58135;50.948;-1.458;2022-10-28T09:05:35;101039.94;;;16.29;18.26
70571;BME280;58135;50.948;-1.458;2022-10-28T09:08:01;101041.78;;;19.10;18.28
70571;BME280;58135;50.948;-1.458;2022-10-28T09:10:40;101040.74;;;17.60;18.29
70571;BME280;58135;50.948;-1.458;2022-10-28T09:12:56;101043.70;;;17.85;18.14
70571;BME280;58135;50.948;-1.458;2022-10-28T09:15:27;101051.49;;;18.69;18.13
70571;BME280;58135;50.948;-1.458;2022-10-28T09:17:50;101051.95;;;19.67;18.17
70571;BME280;58135;50.948;-1.458;2022-10-28T09:20:14;101048.12;;;18.09;18.08
70571;BME280;58135;50.948;-1.458;2022-10-28T09:22:40;101050.87;;;19.10;18.12
70571;BME280;58135;50.948;-1.458;2022-10-28T09:25:01;101052.44;;;19.20;18.01
70571;BME280;58135;50.948;-1.458;2022-10-28T09:27:42;101058.93;;;18.15;17.98
70571;BME280;58135;50.948;-1.458;2022-10-28T09:29:55;101061.96;;;17.26;18.15
70571;BME280;58135;50.948;-1.458;2022-10-28T09:32:21;101061.40;;;17.31;18.08
70571;BME280;58135;50.948;-1.458;2022-10-28T09:34:43;101063.14;;;19.35;18.13
70571;BME280;58135;50.948;-1.458;2022-10-28T09:37:13;101069.18;;;19.34;17.92
70571;BME280;58135;50.948;-1.458;2022-10-28T09:39:36;101075.60;;;18.38;18.08
70571;BME280;58135;50.948;-1.458;2022-10-28T09:41:58;101083.14;;;19.53;18.05
70571;BME280;58135;50.948;-1.458;2022-10-28T09:44:27;101089.44;;;19.69;17.94
70571;BME280;58135;50.948;-1.458;2022-10-28T09:46:51;101090.06;;;19.77;17.90
70571;BME280;58135;50.948;-1.458;2022-10-28T09:49:17;101096.39;;;18.05;17.98
70571;BME280;58135;50.948;-1.458;2022-10-28T09:51:43;101105.27;;;19.30;17.98
70571;BME280;58135;50.948;-1.458;2022-10-28T09:54:04;101105.09;;;18.68;17.78
70571;BME280;58135;50.948;-1.458;2022-10-28T09:56:29;101101.23;;;19.58;17.81
70571;BME280;58135;50.948;-1.458;2022-10-28T09:58:57;101098.20;;;20.52;17.74
70571;BME280;58135;50.948;-1.458;2022-10-28T10:01:20;101099.90;;;18.73;17.80
70571;BME280;58135;50.948;-1.458;2022-10-28T10:03:47;101103.83;;;20.09;17.66
70571;BME280;58135;50.948;-1.458;2022-10-28T10:06:14;101106.89;;;18.49;17.90
70571;BME280;58135;50.948;-1.458;2022-10-28T10:08:38;101108.69;;;19.45;17.85
70571;BME280;58135;50.948;-1.458;2022-10-28T10:11:04;101110.72;;;17.74;17.79
70571;BME280;58135;50.948;-1.458;2022-10-28T10:13:29;101113.37;;;18.53;17.62
70571;BME280;58135;50.948;-1.458;2022-10-28T10:15:55;101119.19;;;18.52;17.70
70571;BME280;58135;50.948;-1.458;2022-10-28T10:18:21;101122.13;;;19.56;17.76
70571;BME280;58135;50.948;-1.458;2022-10-28T10:20:47;101123.23;;;18.93;17.77
70571;BME280;58135;50.948;-1.458;2022-10-28T10:23:21;101129.76;;;20.21;17.74
70571;BME280;58135;50.948;-1.458;2022-10-28T10:25:34;101125.85;;;20.32;17.58
70571;BME280;58135;50.948;-1.458;2022-10-28T10:28:01;101132.09;;;18.44;17.64
70571;BME280;58135;50.948;-1.458;2022-10-28T10:30:29;101135.74;;;20.18;17.55
70571;BME280;58135;50.948;-1.458;2022-10-28T10:32:51;101141.60;;;20.15;17.58
70571;BME280;58135;50.948;-1.458;2022-10-28T10:35:20;101137.19;;;18.36;17.54
70571;BME280;58135;50.948;-1.458;2022-10-28T10:37:42;101142.55;;;18.45;17.58
70571;BME280;58135;50.948;-1.458;2022-10-28T10:40:16;101145.92;;;17.53;17.54
70571;BME280;58135;50.948;-1.458;2022-10-28T10:42:32;101145.51;;;19.27;17.45
70571;BME280;58135;50.948;-1.458;2022-10-28T10:45:00;101149.83;;;19.31;17.35
70571;BME280;58135;50.948;-1.458;2022-10-28T10:47:23;101151.67;;;19.16;16.86
70571;BME280;58135;50.948;-1.458;2022-10-28T10:49:48;101161.96;;;18.96;17.28
70571;BME280;58135;50.948;-1.458;2022-10-28T10:52:17;101167.95;;;19.95;17.44
70571;BME280;58135;50.948;-1.458;2022-10-28T10:54:39;101172.39;;;17.97;17.40
70571;BME280;58135;50.948;-1.458;2022-10-28T10:57:06;101174.92;;;18.47;16.85
70571;BME280;58135;50.948;-1.458;2022-10-28T10:59:30;101181.60;;;19.07;17.47
70571;BME280;58135;50.948;-1.458;2022-10-28T11:01:56;101184.27;;;16.28;17.40
70571;BME280;58135;50.948;-1.458;2022-10-28T11:04:22;101188.59;;;18.18;17.37
70571;BME280;58135;50.948;-1.458;2022-10-28T11:06:48;101188.97;;;17.06;17.21
70571;BME280;58135;50.948;-1.458;2022-10-28T11:09:19;101191.16;;;18.63;17.25
70571;BME280;58135;50.948;-1.458;2022-10-28T11:11:38;101194.64;;;17.82;17.38
70571;BME280;58135;50.948;-1.458;2022-10-28T11:14:05;101199.71;;;17.67;17.54
70571;BME280;58135;50.948;-1.458;2022-10-28T11:16:27;101206.03;;;18.66;17.36
70571;BME280;58135;50.948;-1.458;2022-10-28T11:18:53;101213.33;;;19.53;17.49
70571;BME280;58135;50.948;-1.458;2022-10-28T11:21:32;101217.05;;;18.69;17.32
70571;BME280;58135;50.948;-1.458;2022-10-28T11:23:53;101212.40;;;18.55;17.37
70571;BME280;58135;50.948;-1.458;2022-10-28T11:26:12;101208.02;;;18.66;17.38
70571;BME280;58135;50.948;-1.458;2022-10-28T11:28:45;101207.73;;;19.74;17.17
70571;BME280;58135;50.948;-1.458;2022-10-28T11:31:13;101215.89;;;18.81;17.18
70571;BME280;58135;50.948;-1.458;2022-10-28T11:33:33;101217.58;;;19.58;17.28
70571;BME280;58135;50.948;-1.458;2022-10-28T11:35:58;101215.37;;;19.55;17.31
70571;BME280;58135;50.948;-1.458;2022-10-28T11:38:26;101217.37;;;17.69;17.27
70571;BME280;58135;50.948;-1.458;2022-10-28T11:40:53;101219.17;;;17.88;16.17
70571;BME280;58135;50.948;-1.458;2022-10-28T11:43:17;101220.24;;;17.93;16.90
70571;BME280;58135;50.948;-1.458;2022-10-28T11:45:37;101218.14;;;17.97;16.94
70571;BME280;58135;50.948;-1.458;2022-10-28T11:48:07;101219.80;;;17.27;17.23
70571;BME280;58135;50.948;-1.458;2022-10-28T11:50:37;101226.44;;;20.30;16.99
70571;BME280;58135;50.948;-1.458;2022-10-28T11:53:01;101228.53;;;19.42;16.79
70571;BME280;58135;50.948;-1.458;2022-10-28T11:55:21;101229.21;;;17.61;16.93
70571;BME280;58135;50.948;-1.458;2022-10-28T11:57:49;101230.33;;;19.63;17.12
70571;BME280;58135;50.948;-1.458;2022-10-28T12:00:24;101228.67;;;20.00;17.10
70571;BME280;58135;50.948;-1.458;2022-10-28T12:02:43;101226.78;;;19.25;16.76
70571;BME280;58135;50.948;-1.458;2022-10-28T12:05:02;101225.50;;;18.41;17.01
70571;BME280;58135;50.948;-1.458;2022-10-28T12:07:38;101227.48;;;17.77;16.38
70571;BME280;58135;50.948;-1.458;2022-10-28T12:09:59;101228.05;;;21.58;16.62
70571;BME280;58135;50.948;-1.458;2022-10-28T12:12:16;101232.47;;;19.88;15.78
70571;BME280;58135;50.948;-1.458;2022-10-28T12:14:45;101235.51;;;19.83;16.73
70571;BME280;58135;50.948;-1.458;2022-10-28T12:17:07;101238.29;;;18.98;16.41
70571;BME280;58135;50.948;-1.458;2022-10-28T12:19:32;101243.93;;;19.86;16.23
70571;BME280;58135;50.948;-1.458;2022-10-28T12:21:59;101243.92;;;19.17;15.93
70571;BME280;58135;50.948;-1.458;2022-10-28T12:24:21;101239.81;;;19.31;16.23
70571;BME280;58135;50.948;-1.458;2022-10-28T12:26:48;101243.51;;;18.64;15.95
70571;BME280;58135;50.948;-1.458;2022-10-28T12:29:15;101253.36;;;20.14;15.33
70571;BME280;58135;50.948;-1.458;2022-10-28T12:31:40;101264.63;;;17.14;15.16